sensor_id;sensor_type;location;lat;lon;timestamp;P1;P2;P0
54553;PMS5003;40450;55.848;-3.572;2022-11-15T00:01:07;20;19;
54553;PMS5003;40450;55.848;-3.572;2022-11-15T00:03:37;14;14;
54553;PMS5003;40450;55.848;-3.572;2022-11-15T00:06:08;20;15;
54553;PMS5003;40450;55.848;-3.572;2022-11-15T00:08:38;14;14;
54553;PMS5003;40450;55.848;-3.572;2022-11-15T00:11:10;17;17;
54553;PMS5003;40450;55.848;-3.572;2022-11-15T00:13:39;22;18;
54553;PMS5003;40450;55.848;-3.572;2022-11-15T00:16:10;19;17;
54553;PMS5003;40450;55.848;-3.572;2022-11-15T00:18:40;20;19;
54553;PMS5003;40450;55.848;-3.572;2022-11-15T00:21:11;24;20;
54553;PMS5003;40450;55.848;-3.572;2022-11-15T00:23:41;20;20;
54553;PMS5003;40450;55.848;-3.572;2022-11-15T00:26:13;25;19;
54553;PMS5003;40450;55.848;-3.572;2022-11-15T00:28:42;20;19;
54553;PMS5003;40450;55.848;-3.572;2022-11-15T00:31:13;24;22;
54553;PMS5003;40450;55.848;-3.572;2022-11-15T00:33:43;22;18;
54553;PMS5003;40450;55.848;-3.572;2022-11-15T00:36:13;22;20;
54553;PMS5003;40450;55.848;-3.572;2022-11-15T00:38:43;25;21;
54553;PMS5003;40450;55.848;-3.572;2022-11-15T00:41:13;22;19;
54553;PMS5003;40450;55.848;-3.572;2022-11-15T00:43:43;19;19;
54553;PMS5003;40450;55.848;-3.572;2022-11-15T00:46:14;22;19;
54553;PMS5003;40450;55.848;-3.572;2022-11-15T00:48:44;21;20;
54553;PMS5003;40450;55.848;-3.572;2022-11-15T00:51:15;22;20;
54553;PMS5003;40450;55.848;-3.572;2022-11-15T00:53:45;18;15;
54553;PMS5003;40450;55.848;-3.572;2022-11-15T00:56:16;19;18;
54553;PMS5003;40450;55.848;-3.572;2022-11-15T00:58:46;16;15;
54553;PMS5003;40450;55.848;-3.572;2022-11-15T01:01:17;21;20;
54553;PMS5003;40450;55.848;-3.572;2022-11-15T01:03:47;19;18;
54553;PMS5003;40450;55.848;-3.572;2022-11-15T01:06:18;17;17;
54553;PMS5003;40450;55.848;-3.572;2022-11-15T01:08:49;18;17;
54553;PMS5003;40450;55.848;-3.572;2022-11-15T01:11:19;19;18;
54553;PMS5003;40450;55.848;-3.572;2022-11-15T01:13:49;20;16;
54553;PMS5003;40450;55.848;-3.572;2022-11-15T01:16:20;21;20;
54553;PMS5003;40450;55.848;-3.572;2022-11-15T01:18:50;21;18;
54553;PMS5003;40450;55.848;-3.572;2022-11-15T01:21:20;17;17;
54553;PMS5003;40450;55.848;-3.572;2022-11-15T01:23:52;20;18;
54553;PMS5003;40450;55.848;-3.572;2022-11-15T01:26:22;21;19;
54553;PMS5003;40450;55.848;-3.572;2022-11-15T01:28:52;16;15;
54553;PMS5003;40450;55.848;-3.572;2022-11-15T01:31:22;21;19;
54553;PMS5003;40450;55.848;-3.572;2022-11-15T01:33:53;24;20;
54553;PMS5003;40450;55.848;-3.572;2022-11-15T01:36:23;20;17;
54553;PMS5003;40450;55.848;-3.572;2022-11-15T01:38:54;23;16;
54553;PMS5003;40450;55.848;-3.572;2022-11-15T01:41:26;17;17;
54553;PMS5003;40450;55.848;-3.572;2022-11-15T01:43:55;19;18;
54553;PMS5003;40450;55.848;-3.572;2022-11-15T01:46:27;22;18;
54553;PMS5003;40450;55.848;-3.572;2022-11-15T01:48:56;17;15;
54553;PMS5003;40450;55.848;-3.572;2022-11-15T01:51:26;19;18;
54553;PMS5003;40450;55.848;-3.572;2022-11-15T01:53:57;23;22;
54553;PMS5003;40450;55.848;-3.572;2022-11-15T01:56:27;23;23;
54553;PMS5003;40450;55.848;-3.572;2022-11-15T01:58:57;20;19;
54553;PMS5003;40450;55.848;-3.572;2022-11-15T02:01:27;22;20;
54553;PMS5003;40450;55.848;-3.572;2022-11-15T02:03:59;26;20;
54553;PMS5003;40450;55.848;-3.572;2022-11-15T02:06:29;22;21;
54553;PMS5003;40450;55.848;-3.572;2022-11-15T02:08:59;21;18;
54553;PMS5003;40450;55.848;-3.572;2022-11-15T02:11:29;23;19;
54553;PMS5003;40450;55.848;-3.572;2022-11-15T02:13:59;25;21;
54553;PMS5003;40450;55.848;-3.572;2022-11-15T02:16:31;28;22;
54553;PMS5003;40450;55.848;-3.572;2022-11-15T02:19:01;22;20;
54553;PMS5003;40450;55.848;-3.572;2022-11-15T02:21:31;18;18;
54553;PMS5003;40450;55.848;-3.572;2022-11-15T02:24:05;19;15;
54553;PMS5003;40450;55.848;-3.572;2022-11-15T02:29:01;20;18;
54553;PMS5003;40450;55.848;-3.572;2022-11-15T02:31:32;17;15;
54553;PMS5003;40450;55.848;-3.572;2022-11-15T02:34:03;20;19;
54553;PMS5003;40450;55.848;-3.572;2022-11-15T02:36:34;20;16;
54553;PMS5003;40450;55.848;-3.572;2022-11-15T02:39:02;16;15;
54553;PMS5003;40450;55.848;-3.572;2022-11-15T02:41:34;22;19;
54553;PMS5003;40450;55.848;-3.572;2022-11-15T02:44:03;23;21;
54553;PMS5003;40450;55.848;-3.572;2022-11-15T02:46:34;20;19;
54553;PMS5003;40450;55.848;-3.572;2022-11-15T02:49:08;16;16;
54553;PMS5003;40450;55.848;-3.572;2022-11-15T02:51:33;26;21;
54553;PMS5003;40450;55.848;-3.572;2022-11-15T02:54:03;22;20;
54553;PMS5003;40450;55.848;-3.572;2022-11-15T02:56:33;16;15;
54553;PMS5003;40450;55.848;-3.572;2022-11-15T02:59:08;20;17;
54553;PMS5003;40450;55.848;-3.572;2022-11-15T03:01:38;21;18;
54553;PMS5003;40450;55.848;-3.572;2022-11-15T03:04:06;14;13;
54553;PMS5003;40450;55.848;-3.572;2022-11-15T03:06:37;17;14;
54553;PMS5003;40450;55.848;-3.572;2022-11-15T03:09:07;18;15;
54553;PMS5003;40450;55.848;-3.572;2022-11-15T03:11:36;15;14;
54553;PMS5003;40450;55.848;-3.572;2022-11-15T03:14:09;17;14;
54553;PMS5003;40450;55.848;-3.572;2022-11-15T03:16:36;16;14;
54553;PMS5003;40450;55.848;-3.572;2022-11-15T03:19:21;16;14;
54553;PMS5003;40450;55.848;-3.572;2022-11-15T03:21:36;16;16;
54553;PMS5003;40450;55.848;-3.572;2022-11-15T03:24:07;21;17;
54553;PMS5003;40450;55.848;-3.572;2022-11-15T03:26:38;10;9;
54553;PMS5003;40450;55.848;-3.572;2022-11-15T03:29:09;12;12;
54553;PMS5003;40450;55.848;-3.572;2022-11-15T03:31:39;20;16;
54553;PMS5003;40450;55.848;-3.572;2022-11-15T03:34:10;13;10;
54553;PMS5003;40450;55.848;-3.572;2022-11-15T03:36:39;15;12;
54553;PMS5003;40450;55.848;-3.572;2022-11-15T03:39:09;15;13;
54553;PMS5003;40450;55.848;-3.572;2022-11-15T03:41:41;13;11;
54553;PMS5003;40450;55.848;-3.572;2022-11-15T03:44:13;13;13;
54553;PMS5003;40450;55.848;-3.572;2022-11-15T03:46:42;11;11;
54553;PMS5003;40450;55.848;-3.572;2022-11-15T03:49:11;13;11;
54553;PMS5003;40450;55.848;-3.572;2022-11-15T03:51:41;7;7;
54553;PMS5003;40450;55.848;-3.572;2022-11-15T03:54:12;10;10;
54553;PMS5003;40450;55.848;-3.572;2022-11-15T03:56:42;10;9;
54553;PMS5003;40450;55.848;-3.572;2022-11-15T03:59:13;12;11;
54553;PMS5003;40450;55.848;-3.572;2022-11-15T04:01:43;12;12;
54553;PMS5003;40450;55.848;-3.572;2022-11-15T04:04:14;11;11;
54553;PMS5003;40450;55.848;-3.572;2022-11-15T04:06:45;6;6;
54553;PMS5003;40450;55.848;-3.572;2022-11-15T04:09:14;7;7;
54553;PMS5003;40450;55.848;-3.572;2022-11-15T04:11:45;11;10;
54553;PMS5003;40450;55.848;-3.572;2022-11-15T04:14:15;9;7;
54553;PMS5003;40450;55.848;-3.572;2022-11-15T04:16:46;10;9;
54553;PMS5003;40450;55.848;-3.572;2022-11-15T04:19:16;8;8;
54553;PMS5003;40450;55.848;-3.572;2022-11-15T04:21:46;11;10;
54553;PMS5003;40450;55.848;-3.572;2022-11-15T04:24:17;10;9;
54553;PMS5003;40450;55.848;-3.572;2022-11-15T04:26:47;12;10;
54553;PMS5003;40450;55.848;-3.572;2022-11-15T04:29:17;9;8;
54553;PMS5003;40450;55.848;-3.572;2022-11-15T04:31:47;11;9;
54553;PMS5003;40450;55.848;-3.572;2022-11-15T04:34:18;11;10;
54553;PMS5003;40450;55.848;-3.572;2022-11-15T04:36:48;12;10;
54553;PMS5003;40450;55.848;-3.572;2022-11-15T04:39:19;9;9;
54553;PMS5003;40450;55.848;-3.572;2022-11-15T04:41:49;13;11;
54553;PMS5003;40450;55.848;-3.572;2022-11-15T04:44:20;9;7;
54553;PMS5003;40450;55.848;-3.572;2022-11-15T04:46:50;9;9;
54553;PMS5003;40450;55.848;-3.572;2022-11-15T04:49:21;10;10;
54553;PMS5003;40450;55.848;-3.572;2022-11-15T04:51:51;9;9;
54553;PMS5003;40450;55.848;-3.572;2022-11-15T04:54:21;10;9;
54553;PMS5003;40450;55.848;-3.572;2022-11-15T04:56:52;6;6;
54553;PMS5003;40450;55.848;-3.572;2022-11-15T04:59:22;11;7;
54553;PMS5003;40450;55.848;-3.572;2022-11-15T05:01:52;9;8;
54553;PMS5003;40450;55.848;-3.572;2022-11-15T05:04:23;8;6;
54553;PMS5003;40450;55.848;-3.572;2022-11-15T05:06:53;8;8;
54553;PMS5003;40450;55.848;-3.572;2022-11-15T05:09:24;9;8;
54553;PMS5003;40450;55.848;-3.572;2022-11-15T05:11:54;9;9;
54553;PMS5003;40450;55.848;-3.572;2022-11-15T05:14:24;10;9;
54553;PMS5003;40450;55.848;-3.572;2022-11-15T05:16:54;6;6;
54553;PMS5003;40450;55.848;-3.572;2022-11-15T05:19:25;9;9;
54553;PMS5003;40450;55.848;-3.572;2022-11-15T05:21:55;9;9;
54553;PMS5003;40450;55.848;-3.572;2022-11-15T05:24:26;7;7;
54553;PMS5003;40450;55.848;-3.572;2022-11-15T05:26:56;6;6;
54553;PMS5003;40450;55.848;-3.572;2022-11-15T05:29:26;11;8;
54553;PMS5003;40450;55.848;-3.572;2022-11-15T05:31:57;6;6;
54553;PMS5003;40450;55.848;-3.572;2022-11-15T05:34:27;11;10;
54553;PMS5003;40450;55.848;-3.572;2022-11-15T05:36:58;9;8;
54553;PMS5003;40450;55.848;-3.572;2022-11-15T05:39:28;8;7;
54553;PMS5003;40450;55.848;-3.572;2022-11-15T05:41:59;11;8;
54553;PMS5003;40450;55.848;-3.572;2022-11-15T05:44:28;11;9;
54553;PMS5003;40450;55.848;-3.572;2022-11-15T05:46:58;9;9;
54553;PMS5003;40450;55.848;-3.572;2022-11-15T05:49:30;10;8;
54553;PMS5003;40450;55.848;-3.572;2022-11-15T05:51:59;9;8;
54553;PMS5003;40450;55.848;-3.572;2022-11-15T05:54:29;12;11;
54553;PMS5003;40450;55.848;-3.572;2022-11-15T05:57:00;13;10;
54553;PMS5003;40450;55.848;-3.572;2022-11-15T05:59:30;10;10;
54553;PMS5003;40450;55.848;-3.572;2022-11-15T06:02:00;11;8;
54553;PMS5003;40450;55.848;-3.572;2022-11-15T06:04:30;10;10;
54553;PMS5003;40450;55.848;-3.572;2022-11-15T06:07:01;10;8;
54553;PMS5003;40450;55.848;-3.572;2022-11-15T06:09:31;9;9;
54553;PMS5003;40450;55.848;-3.572;2022-11-15T06:12:01;8;8;
54553;PMS5003;40450;55.848;-3.572;2022-11-15T06:14:31;8;6;
54553;PMS5003;40450;55.848;-3.572;2022-11-15T06:17:02;9;8;
54553;PMS5003;40450;55.848;-3.572;2022-11-15T06:19:32;9;9;
54553;PMS5003;40450;55.848;-3.572;2022-11-15T06:22:03;7;7;
54553;PMS5003;40450;55.848;-3.572;2022-11-15T06:24:33;5;5;
54553;PMS5003;40450;55.848;-3.572;2022-11-15T06:27:03;7;6;
54553;PMS5003;40450;55.848;-3.572;2022-11-15T06:29:34;11;7;
54553;PMS5003;40450;55.848;-3.572;2022-11-15T06:32:04;8;8;
54553;PMS5003;40450;55.848;-3.572;2022-11-15T06:34:34;7;7;
54553;PMS5003;40450;55.848;-3.572;2022-11-15T06:37:05;9;8;
54553;PMS5003;40450;55.848;-3.572;2022-11-15T06:39:35;7;7;
54553;PMS5003;40450;55.848;-3.572;2022-11-15T06:42:07;7;6;
54553;PMS5003;40450;55.848;-3.572;2022-11-15T06:44:35;9;8;
54553;PMS5003;40450;55.848;-3.572;2022-11-15T06:47:06;8;8;
54553;PMS5003;40450;55.848;-3.572;2022-11-15T06:49:35;9;7;
54553;PMS5003;40450;55.848;-3.572;2022-11-15T06:52:06;7;7;
54553;PMS5003;40450;55.848;-3.572;2022-11-15T06:54:36;7;7;
54553;PMS5003;40450;55.848;-3.572;2022-11-15T06:57:07;8;8;
54553;PMS5003;40450;55.848;-3.572;2022-11-15T06:59:36;10;8;
54553;PMS5003;40450;55.848;-3.572;2022-11-15T07:02:10;7;7;
54553;PMS5003;40450;55.848;-3.572;2022-11-15T07:04:37;9;9;
54553;PMS5003;40450;55.848;-3.572;2022-11-15T07:07:08;7;7;
54553;PMS5003;40450;55.848;-3.572;2022-11-15T07:09:38;10;7;
54553;PMS5003;40450;55.848;-3.572;2022-11-15T07:12:08;9;8;
54553;PMS5003;40450;55.848;-3.572;2022-11-15T07:14:39;6;6;
54553;PMS5003;40450;55.848;-3.572;2022-11-15T07:17:09;9;8;
54553;PMS5003;40450;55.848;-3.572;2022-11-15T07:19:39;8;8;
54553;PMS5003;40450;55.848;-3.572;2022-11-15T07:22:10;12;10;
54553;PMS5003;40450;55.848;-3.572;2022-11-15T07:24:40;7;6;
54553;PMS5003;40450;55.848;-3.572;2022-11-15T07:27:10;10;10;
54553;PMS5003;40450;55.848;-3.572;2022-11-15T07:29:41;10;8;
54553;PMS5003;40450;55.848;-3.572;2022-11-15T07:32:11;11;8;
54553;PMS5003;40450;55.848;-3.572;2022-11-15T07:34:42;9;8;
54553;PMS5003;40450;55.848;-3.572;2022-11-15T07:37:12;9;7;
54553;PMS5003;40450;55.848;-3.572;2022-11-15T07:39:43;10;10;
54553;PMS5003;40450;55.848;-3.572;2022-11-15T07:42:13;11;9;
54553;PMS5003;40450;55.848;-3.572;2022-11-15T07:44:49;10;10;
54553;PMS5003;40450;55.848;-3.572;2022-11-15T07:47:13;13;9;
54553;PMS5003;40450;55.848;-3.572;2022-11-15T07:49:43;14;12;
54553;PMS5003;40450;55.848;-3.572;2022-11-15T07:52:14;9;7;
54553;PMS5003;40450;55.848;-3.572;2022-11-15T07:54:44;10;9;
54553;PMS5003;40450;55.848;-3.572;2022-11-15T07:57:14;13;13;
54553;PMS5003;40450;55.848;-3.572;2022-11-15T07:59:44;16;12;
54553;PMS5003;40450;55.848;-3.572;2022-11-15T08:02:14;15;12;
54553;PMS5003;40450;55.848;-3.572;2022-11-15T08:04:45;11;11;
54553;PMS5003;40450;55.848;-3.572;2022-11-15T08:07:15;13;12;
54553;PMS5003;40450;55.848;-3.572;2022-11-15T08:09:46;13;11;
54553;PMS5003;40450;55.848;-3.572;2022-11-15T08:12:16;15;11;
54553;PMS5003;40450;55.848;-3.572;2022-11-15T08:14:47;16;15;
54553;PMS5003;40450;55.848;-3.572;2022-11-15T08:17:17;13;12;
54553;PMS5003;40450;55.848;-3.572;2022-11-15T08:19:47;16;12;
54553;PMS5003;40450;55.848;-3.572;2022-11-15T08:22:18;12;12;
54553;PMS5003;40450;55.848;-3.572;2022-11-15T08:24:48;20;14;
54553;PMS5003;40450;55.848;-3.572;2022-11-15T08:27:18;16;14;
54553;PMS5003;40450;55.848;-3.572;2022-11-15T08:29:49;13;13;
54553;PMS5003;40450;55.848;-3.572;2022-11-15T08:32:18;10;10;
54553;PMS5003;40450;55.848;-3.572;2022-11-15T08:34:49;14;14;
54553;PMS5003;40450;55.848;-3.572;2022-11-15T08:37:19;13;12;
54553;PMS5003;40450;55.848;-3.572;2022-11-15T08:39:50;17;15;
54553;PMS5003;40450;55.848;-3.572;2022-11-15T08:42:20;15;12;
54553;PMS5003;40450;55.848;-3.572;2022-11-15T08:44:50;14;11;
54553;PMS5003;40450;55.848;-3.572;2022-11-15T08:47:20;13;11;
54553;PMS5003;40450;55.848;-3.572;2022-11-15T08:49:50;11;11;
54553;PMS5003;40450;55.848;-3.572;2022-11-15T08:52:20;11;10;
54553;PMS5003;40450;55.848;-3.572;2022-11-15T08:54:50;12;11;
54553;PMS5003;40450;55.848;-3.572;2022-11-15T08:57:21;16;13;
54553;PMS5003;40450;55.848;-3.572;2022-11-15T08:59:52;10;10;
54553;PMS5003;40450;55.848;-3.572;2022-11-15T09:02:22;12;12;
54553;PMS5003;40450;55.848;-3.572;2022-11-15T09:04:53;17;12;
54553;PMS5003;40450;55.848;-3.572;2022-11-15T09:07:22;14;11;
54553;PMS5003;40450;55.848;-3.572;2022-11-15T09:09:52;12;12;
54553;PMS5003;40450;55.848;-3.572;2022-11-15T09:12:23;15;13;
54553;PMS5003;40450;55.848;-3.572;2022-11-15T09:14:53;11;11;
54553;PMS5003;40450;55.848;-3.572;2022-11-15T09:17:23;11;10;
54553;PMS5003;40450;55.848;-3.572;2022-11-15T09:19:54;12;12;
54553;PMS5003;40450;55.848;-3.572;2022-11-15T09:22:24;9;9;
54553;PMS5003;40450;55.848;-3.572;2022-11-15T09:24:54;12;12;
54553;PMS5003;40450;55.848;-3.572;2022-11-15T09:27:31;18;12;
54553;PMS5003;40450;55.848;-3.572;2022-11-15T09:29:55;12;10;
54553;PMS5003;40450;55.848;-3.572;2022-11-15T09:32:27;12;9;
54553;PMS5003;40450;55.848;-3.572;2022-11-15T09:34:57;11;11;
54553;PMS5003;40450;55.848;-3.572;2022-11-15T09:37:26;14;11;
54553;PMS5003;40450;55.848;-3.572;2022-11-15T09:39:56;11;9;
54553;PMS5003;40450;55.848;-3.572;2022-11-15T09:42:31;10;10;
54553;PMS5003;40450;55.848;-3.572;2022-11-15T09:45:02;12;10;
54553;PMS5003;40450;55.848;-3.572;2022-11-15T09:47:34;15;9;
54553;PMS5003;40450;55.848;-3.572;2022-11-15T09:49:59;11;9;
54553;PMS5003;40450;55.848;-3.572;2022-11-15T09:52:31;9;9;
54553;PMS5003;40450;55.848;-3.572;2022-11-15T09:55:00;9;9;
54553;PMS5003;40450;55.848;-3.572;2022-11-15T09:57:32;7;7;
54553;PMS5003;40450;55.848;-3.572;2022-11-15T10:00:09;11;10;
54553;PMS5003;40450;55.848;-3.572;2022-11-15T10:02:36;8;8;
54553;PMS5003;40450;55.848;-3.572;2022-11-15T10:05:02;9;7;
54553;PMS5003;40450;55.848;-3.572;2022-11-15T10:07:34;6;5;
54553;PMS5003;40450;55.848;-3.572;2022-11-15T10:10:04;10;7;
54553;PMS5003;40450;55.848;-3.572;2022-11-15T10:12:32;6;6;
54553;PMS5003;40450;55.848;-3.572;2022-11-15T10:15:05;8;8;
54553;PMS5003;40450;55.848;-3.572;2022-11-15T10:17:38;8;6;
54553;PMS5003;40450;55.848;-3.572;2022-11-15T10:20:07;7;5;
54553;PMS5003;40450;55.848;-3.572;2022-11-15T10:22:35;6;6;
54553;PMS5003;40450;55.848;-3.572;2022-11-15T10:25:12;5;5;
54553;PMS5003;40450;55.848;-3.572;2022-11-15T10:27:35;5;5;
54553;PMS5003;40450;55.848;-3.572;2022-11-15T10:30:08;7;5;
54553;PMS5003;40450;55.848;-3.572;2022-11-15T10:32:35;5;3;
54553;PMS5003;40450;55.848;-3.572;2022-11-15T10:37:35;5;5;
54553;PMS5003;40450;55.848;-3.572;2022-11-15T10:40:13;2;2;
54553;PMS5003;40450;55.848;-3.572;2022-11-15T10:42:36;3;3;
54553;PMS5003;40450;55.848;-3.572;2022-11-15T10:47:37;2;2;
54553;PMS5003;40450;55.848;-3.572;2022-11-15T10:50:24;2;2;
54553;PMS5003;40450;55.848;-3.572;2022-11-15T10:52:37;1;1;
54553;PMS5003;40450;55.848;-3.572;2022-11-15T10:57:40;5;2;
54553;PMS5003;40450;55.848;-3.572;2022-11-15T11:00:25;1;1;
54553;PMS5003;40450;55.848;-3.572;2022-11-15T11:02:40;2;2;
54553;PMS5003;40450;55.848;-3.572;2022-11-15T11:07:39;1;1;
54553;PMS5003;40450;55.848;-3.572;2022-11-15T11:12:40;1;1;
54553;PMS5003;40450;55.848;-3.572;2022-11-15T11:15:11;2;0;
54553;PMS5003;40450;55.848;-3.572;2022-11-15T11:17:46;0;0;
54553;PMS5003;40450;55.848;-3.572;2022-11-15T11:20:14;1;1;
54553;PMS5003;40450;55.848;-3.572;2022-11-15T11:22:42;1;1;
54553;PMS5003;40450;55.848;-3.572;2022-11-15T11:25:16;0;0;
54553;PMS5003;40450;55.848;-3.572;2022-11-15T11:27:43;0;0;
54553;PMS5003;40450;55.848;-3.572;2022-11-15T11:30:14;0;0;
54553;PMS5003;40450;55.848;-3.572;2022-11-15T11:32:49;0;0;
54553;PMS5003;40450;55.848;-3.572;2022-11-15T11:35:14;0;0;
54553;PMS5003;40450;55.848;-3.572;2022-11-15T11:37:46;0;0;
54553;PMS5003;40450;55.848;-3.572;2022-11-15T11:40:19;0;0;
54553;PMS5003;40450;55.848;-3.572;2022-11-15T11:42:46;0;0;
54553;PMS5003;40450;55.848;-3.572;2022-11-15T11:45:15;0;0;
54553;PMS5003;40450;55.848;-3.572;2022-11-15T11:47:47;2;0;
54553;PMS5003;40450;55.848;-3.572;2022-11-15T11:50:17;0;0;
54553;PMS5003;40450;55.848;-3.572;2022-11-15T11:52:49;0;0;
54553;PMS5003;40450;55.848;-3.572;2022-11-15T11:55:17;2;0;
54553;PMS5003;40450;55.848;-3.572;2022-11-15T11:57:47;0;0;
54553;PMS5003;40450;55.848;-3.572;2022-11-15T12:00:18;0;0;
54553;PMS5003;40450;55.848;-3.572;2022-11-15T12:02:48;0;0;
54553;PMS5003;40450;55.848;-3.572;2022-11-15T12:05:18;0;0;
54553;PMS5003;40450;55.848;-3.572;2022-11-15T12:07:47;0;0;
54553;PMS5003;40450;55.848;-3.572;2022-11-15T12:10:20;1;1;
54553;PMS5003;40450;55.848;-3.572;2022-11-15T12:12:50;0;0;
54553;PMS5003;40450;55.848;-3.572;2022-11-15T12:15:19;0;0;
54553;PMS5003;40450;55.848;-3.572;2022-11-15T12:17:49;0;0;
54553;PMS5003;40450;55.848;-3.572;2022-11-15T12:20:21;0;0;
54553;PMS5003;40450;55.848;-3.572;2022-11-15T12:22:55;0;0;
54553;PMS5003;40450;55.848;-3.572;2022-11-15T12:25:21;0;0;
54553;PMS5003;40450;55.848;-3.572;2022-11-15T12:27:51;0;0;
54553;PMS5003;40450;55.848;-3.572;2022-11-15T12:30:21;0;0;
54553;PMS5003;40450;55.848;-3.572;2022-11-15T12:32:52;0;0;
54553;PMS5003;40450;55.848;-3.572;2022-11-15T12:35:23;0;0;
54553;PMS5003;40450;55.848;-3.572;2022-11-15T12:37:52;0;0;
54553;PMS5003;40450;55.848;-3.572;2022-11-15T12:40:23;0;0;
54553;PMS5003;40450;55.848;-3.572;2022-11-15T12:45:24;0;0;
54553;PMS5003;40450;55.848;-3.572;2022-11-15T12:47:53;0;0;
54553;PMS5003;40450;55.848;-3.572;2022-11-15T12:57:54;0;0;
54553;PMS5003;40450;55.848;-3.572;2022-11-15T13:07:56;0;0;
54553;PMS5003;40450;55.848;-3.572;2022-11-15T13:10:30;0;0;
54553;PMS5003;40450;55.848;-3.572;2022-11-15T13:12:57;3;3;
54553;PMS5003;40450;55.848;-3.572;2022-11-15T13:15:31;14;10;
54553;PMS5003;40450;55.848;-3.572;2022-11-15T13:17:57;0;0;
54553;PMS5003;40450;55.848;-3.572;2022-11-15T13:20:28;0;0;
54553;PMS5003;40450;55.848;-3.572;2022-11-15T13:23:00;1;1;
54553;PMS5003;40450;55.848;-3.572;2022-11-15T13:27:58;0;0;
54553;PMS5003;40450;55.848;-3.572;2022-11-15T13:30:29;0;0;
54553;PMS5003;40450;55.848;-3.572;2022-11-15T13:33:00;0;0;
54553;PMS5003;40450;55.848;-3.572;2022-11-15T13:35:29;0;0;
54553;PMS5003;40450;55.848;-3.572;2022-11-15T13:38:03;0;0;
54553;PMS5003;40450;55.848;-3.572;2022-11-15T13:40:34;0;0;
54553;PMS5003;40450;55.848;-3.572;2022-11-15T13:43:02;0;0;
54553;PMS5003;40450;55.848;-3.572;2022-11-15T13:45:31;0;0;
54553;PMS5003;40450;55.848;-3.572;2022-11-15T13:48:02;1;0;
54553;PMS5003;40450;55.848;-3.572;2022-11-15T13:50:32;0;0;
54553;PMS5003;40450;55.848;-3.572;2022-11-15T13:53:02;0;0;
54553;PMS5003;40450;55.848;-3.572;2022-11-15T13:55:32;0;0;
54553;PMS5003;40450;55.848;-3.572;2022-11-15T13:58:03;0;0;
54553;PMS5003;40450;55.848;-3.572;2022-11-15T14:00:35;0;0;
54553;PMS5003;40450;55.848;-3.572;2022-11-15T14:03:05;4;2;
54553;PMS5003;40450;55.848;-3.572;2022-11-15T14:05:34;14;14;
54553;PMS5003;40450;55.848;-3.572;2022-11-15T14:08:12;15;13;
54553;PMS5003;40450;55.848;-3.572;2022-11-15T14:10:36;11;10;
54553;PMS5003;40450;55.848;-3.572;2022-11-15T14:13:10;8;7;
54553;PMS5003;40450;55.848;-3.572;2022-11-15T14:15:36;5;5;
54553;PMS5003;40450;55.848;-3.572;2022-11-15T14:18:06;7;4;
54553;PMS5003;40450;55.848;-3.572;2022-11-15T14:20:37;5;5;
54553;PMS5003;40450;55.848;-3.572;2022-11-15T14:25:37;3;3;
54553;PMS5003;40450;55.848;-3.572;2022-11-15T14:28:09;1;1;
54553;PMS5003;40450;55.848;-3.572;2022-11-15T14:30:38;0;0;
54553;PMS5003;40450;55.848;-3.572;2022-11-15T14:35:38;0;0;
54553;PMS5003;40450;55.848;-3.572;2022-11-15T14:38:08;0;0;
54553;PMS5003;40450;55.848;-3.572;2022-11-15T14:40:39;0;0;
54553;PMS5003;40450;55.848;-3.572;2022-11-15T14:43:09;3;0;
54553;PMS5003;40450;55.848;-3.572;2022-11-15T14:45:40;0;0;
54553;PMS5003;40450;55.848;-3.572;2022-11-15T14:48:11;0;0;
54553;PMS5003;40450;55.848;-3.572;2022-11-15T14:50:40;18;17;
54553;PMS5003;40450;55.848;-3.572;2022-11-15T14:53:12;22;22;
54553;PMS5003;40450;55.848;-3.572;2022-11-15T14:55:41;8;8;
54553;PMS5003;40450;55.848;-3.572;2022-11-15T14:58:11;0;0;
54553;PMS5003;40450;55.848;-3.572;2022-11-15T15:00:42;1;1;
54553;PMS5003;40450;55.848;-3.572;2022-11-15T15:03:12;15;15;
54553;PMS5003;40450;55.848;-3.572;2022-11-15T15:05:45;11;10;
54553;PMS5003;40450;55.848;-3.572;2022-11-15T15:08:14;4;4;
54553;PMS5003;40450;55.848;-3.572;2022-11-15T15:10:45;34;31;
54553;PMS5003;40450;55.848;-3.572;2022-11-15T15:13:15;8;8;
54553;PMS5003;40450;55.848;-3.572;2022-11-15T15:15:45;6;3;
54553;PMS5003;40450;55.848;-3.572;2022-11-15T15:18:15;1;1;
54553;PMS5003;40450;55.848;-3.572;2022-11-15T15:20:46;6;6;
54553;PMS5003;40450;55.848;-3.572;2022-11-15T15:23:16;12;10;
54553;PMS5003;40450;55.848;-3.572;2022-11-15T15:25:46;3;3;
54553;PMS5003;40450;55.848;-3.572;2022-11-15T15:28:16;23;20;
54553;PMS5003;40450;55.848;-3.572;2022-11-15T15:30:47;17;16;
54553;PMS5003;40450;55.848;-3.572;2022-11-15T15:33:17;17;10;
54553;PMS5003;40450;55.848;-3.572;2022-11-15T15:35:48;4;4;
54553;PMS5003;40450;55.848;-3.572;2022-11-15T15:38:17;4;4;
54553;PMS5003;40450;55.848;-3.572;2022-11-15T15:40:48;5;5;
54553;PMS5003;40450;55.848;-3.572;2022-11-15T15:43:18;7;4;
54553;PMS5003;40450;55.848;-3.572;2022-11-15T15:45:52;5;5;
54553;PMS5003;40450;55.848;-3.572;2022-11-15T15:48:20;6;4;
54553;PMS5003;40450;55.848;-3.572;2022-11-15T15:53:20;0;0;
54553;PMS5003;40450;55.848;-3.572;2022-11-15T15:58:20;1;1;
54553;PMS5003;40450;55.848;-3.572;2022-11-15T16:00:53;3;3;
54553;PMS5003;40450;55.848;-3.572;2022-11-15T16:03:21;1;1;
54553;PMS5003;40450;55.848;-3.572;2022-11-15T16:05:51;2;1;
54553;PMS5003;40450;55.848;-3.572;2022-11-15T16:08:23;1;1;
54553;PMS5003;40450;55.848;-3.572;2022-11-15T16:10:53;1;1;
54553;PMS5003;40450;55.848;-3.572;2022-11-15T16:13:22;2;1;
54553;PMS5003;40450;55.848;-3.572;2022-11-15T16:15:58;0;0;
54553;PMS5003;40450;55.848;-3.572;2022-11-15T16:18:23;1;0;
54553;PMS5003;40450;55.848;-3.572;2022-11-15T16:20:54;0;0;
54553;PMS5003;40450;55.848;-3.572;2022-11-15T16:23:24;0;0;
54553;PMS5003;40450;55.848;-3.572;2022-11-15T16:25:55;0;0;
54553;PMS5003;40450;55.848;-3.572;2022-11-15T16:28:26;0;0;
54553;PMS5003;40450;55.848;-3.572;2022-11-15T16:33:25;0;0;
54553;PMS5003;40450;55.848;-3.572;2022-11-15T16:35:56;0;0;
54553;PMS5003;40450;55.848;-3.572;2022-11-15T16:38:26;0;0;
54553;PMS5003;40450;55.848;-3.572;2022-11-15T16:40:57;0;0;
54553;PMS5003;40450;55.848;-3.572;2022-11-15T16:43:26;2;0;
54553;PMS5003;40450;55.848;-3.572;2022-11-15T16:45:57;0;0;
54553;PMS5003;40450;55.848;-3.572;2022-11-15T16:48:27;1;0;
54553;PMS5003;40450;55.848;-3.572;2022-11-15T16:50:58;0;0;
54553;PMS5003;40450;55.848;-3.572;2022-11-15T16:53:28;0;0;
54553;PMS5003;40450;55.848;-3.572;2022-11-15T16:55:58;0;0;
54553;PMS5003;40450;55.848;-3.572;2022-11-15T16:58:29;0;0;
54553;PMS5003;40450;55.848;-3.572;2022-11-15T17:01:00;3;3;
54553;PMS5003;40450;55.848;-3.572;2022-11-15T17:03:29;6;5;
54553;PMS5003;40450;55.848;-3.572;2022-11-15T17:06:00;12;9;
54553;PMS5003;40450;55.848;-3.572;2022-11-15T17:08:30;14;13;
54553;PMS5003;40450;55.848;-3.572;2022-11-15T17:11:03;13;12;
54553;PMS5003;40450;55.848;-3.572;2022-11-15T17:13:30;12;12;
54553;PMS5003;40450;55.848;-3.572;2022-11-15T17:16:02;9;7;
54553;PMS5003;40450;55.848;-3.572;2022-11-15T17:18:31;8;8;
54553;PMS5003;40450;55.848;-3.572;2022-11-15T17:21:03;8;8;
54553;PMS5003;40450;55.848;-3.572;2022-11-15T17:23:32;6;6;
54553;PMS5003;40450;55.848;-3.572;2022-11-15T17:26:03;5;5;